Time;durP1;ratioP1;P1;durP2;ratioP2;P2;SDS_P1;SDS_P2;PMS_P1;PMS_P2;Temp;Humidity;BMP_temperature;BMP_pressure;BME280_temperature;BME280_humidity;BME280_pressure;Samples;Min_cycle;Max_cycle;Signal;HPM_P1;HPM_P2
2023/12/09 00:01:28;;;;;;;38.13;21.40;;;2.00;99.90;;;;;;5036128;28;20181;-72
2023/12/09 00:03:53;;;;;;;41.87;20.30;;;2.00;99.90;;;;;;5054224;28;20524;-72
2023/12/09 00:06:20;;;;;;;44.00;21.43;;;2.00;99.90;;;;;;5065246;28;20575;-72
2023/12/09 00:08:46;;;;;;;38.50;20.07;;;1.90;99.90;;;;;;5067222;28;20705;-73
2023/12/09 00:11:11;;;;;;;42.37;21.90;;;1.90;99.90;;;;;;5070289;28;20433;-71
2023/12/09 00:13:37;;;;;;;41.27;20.50;;;1.90;99.90;;;;;;5068855;28;20519;-73
2023/12/09 00:16:04;;;;;;;41.33;21.63;;;1.90;99.90;;;;;;5050723;28;20794;-73
2023/12/09 00:18:29;;;;;;;40.07;20.77;;;1.90;99.90;;;;;;5052355;28;20277;-72
2023/12/09 00:20:55;;;;;;;43.23;21.57;;;1.80;99.90;;;;;;5045811;28;20501;-73
2023/12/09 00:23:21;;;;;;;40.37;21.17;;;1.90;99.90;;;;;;5052699;28;20307;-72
2023/12/09 00:25:47;;;;;;;46.13;20.30;;;1.90;99.90;;;;;;5051852;28;20240;-72
2023/12/09 00:28:13;;;;;;;39.80;20.93;;;1.80;99.90;;;;;;5052614;28;20187;-73
2023/12/09 00:30:38;;;;;;;47.03;21.27;;;1.80;99.90;;;;;;5052544;28;20609;-72
2023/12/09 00:33:05;;;;;;;48.47;21.60;;;1.90;99.90;;;;;;5052414;28;20174;-72
2023/12/09 00:35:31;;;;;;;43.23;22.33;;;1.90;99.90;;;;;;5051553;28;20166;-71
2023/12/09 00:37:56;;;;;;;37.30;20.13;;;1.90;99.90;;;;;;5033169;28;20442;-71
2023/12/09 00:40:22;;;;;;;43.03;20.70;;;1.90;99.90;;;;;;5032679;28;20171;-74
2023/12/09 00:42:48;;;;;;;41.13;21.10;;;2.00;99.90;;;;;;5032703;28;20592;-71
2023/12/09 00:45:14;;;;;;;43.83;20.70;;;1.90;99.90;;;;;;5039362;28;20174;-71
2023/12/09 00:47:40;;;;;;;44.77;21.77;;;1.90;99.90;;;;;;5052847;28;20477;-72
2023/12/09 00:50:06;;;;;;;40.00;19.93;;;2.00;99.90;;;;;;5042203;28;20494;-71
2023/12/09 00:52:32;;;;;;;43.60;22.20;;;2.00;99.90;;;;;;5062770;28;20431;-72
2023/12/09 00:54:59;;;;;;;42.03;22.03;;;2.00;99.90;;;;;;5053421;28;20429;-72
2023/12/09 00:57:25;;;;;;;45.17;21.57;;;2.00;99.90;;;;;;5069278;28;20214;-71
2023/12/09 00:59:51;;;;;;;39.80;19.93;;;2.10;99.90;;;;;;5071227;28;21212;-71
2023/12/09 01:02:16;;;;;;;39.63;20.40;;;2.10;99.90;;;;;;5069705;28;20240;-73
2023/12/09 01:04:43;;;;;;;36.47;18.47;;;2.00;99.90;;;;;;5055092;28;20195;-72
2023/12/09 01:07:09;;;;;;;44.00;21.00;;;2.00;99.90;;;;;;5052176;28;20274;-75
2023/12/09 01:09:35;;;;;;;39.37;21.17;;;2.00;99.90;;;;;;5066592;28;21044;-73
2023/12/09 01:12:01;;;;;;;44.67;21.53;;;2.00;99.90;;;;;;5068766;28;20962;-73
2023/12/09 01:14:27;;;;;;;49.50;22.97;;;2.10;99.90;;;;;;5052795;28;20645;-72
2023/12/09 01:16:52;;;;;;;40.07;20.00;;;2.10;99.90;;;;;;5051520;28;20444;-74
2023/12/09 01:19:18;;;;;;;40.03;20.97;;;2.10;99.90;;;;;;5062620;28;20663;-72
2023/12/09 01:21:44;;;;;;;53.87;22.40;;;2.10;99.90;;;;;;5059466;28;20188;-72
2023/12/09 01:24:09;;;;;;;39.37;20.00;;;2.10;99.90;;;;;;5066786;28;20238;-74
2023/12/09 01:26:35;;;;;;;39.00;20.73;;;2.20;99.90;;;;;;5052301;28;20179;-72
2023/12/09 01:29:03;;;;;;;46.73;21.10;;;2.20;99.90;;;;;;5066678;28;20596;-73
2023/12/09 01:31:29;;;;;;;40.67;20.70;;;2.20;99.90;;;;;;5062957;28;20170;-72
2023/12/09 01:33:55;;;;;;;47.60;20.27;;;2.20;99.90;;;;;;5070938;28;20420;-73
2023/12/09 01:36:20;;;;;;;38.30;19.50;;;2.10;99.90;;;;;;5068256;28;20423;-72
2023/12/09 01:38:46;;;;;;;40.07;19.70;;;2.10;99.90;;;;;;5067345;28;20545;-72
2023/12/09 01:41:12;;;;;;;39.87;20.27;;;2.10;99.90;;;;;;5073202;28;20261;-75
2023/12/09 01:43:37;;;;;;;39.27;20.57;;;2.10;99.90;;;;;;5073280;28;20178;-73
2023/12/09 01:46:09;;;;;;;43.97;20.40;;;2.00;99.90;;;;;;5066697;28;20179;-73
2023/12/09 01:48:35;;;;;;;43.60;21.37;;;2.00;99.90;;;;;;5053355;28;20195;-71
2023/12/09 01:51:02;;;;;;;43.83;20.87;;;2.00;99.90;;;;;;5053913;28;20457;-73
2023/12/09 01:53:29;;;;;;;50.27;21.00;;;2.00;99.90;;;;;;5064098;28;20924;-71
2023/12/09 01:55:59;;;;;;;47.50;21.77;;;2.00;99.90;;;;;;5064583;28;20849;-71
2023/12/09 01:58:26;;;;;;;44.40;19.40;;;2.00;99.90;;;;;;5054478;28;20437;-73
2023/12/09 02:00:52;;;;;;;44.93;19.90;;;2.00;99.90;;;;;;5061432;28;20433;-71
2023/12/09 02:03:18;;;;;;;45.33;19.70;;;2.00;99.90;;;;;;5062396;28;20436;-71
2023/12/09 02:05:45;;;;;;;43.77;20.50;;;2.00;99.90;;;;;;5052843;28;20425;-72
2023/12/09 02:08:11;;;;;;;40.27;19.50;;;2.00;99.90;;;;;;5052867;28;20503;-71
2023/12/09 02:10:37;;;;;;;49.53;19.60;;;2.00;99.90;;;;;;5065387;28;20444;-73
2023/12/09 02:13:39;;;;;;;51.00;21.33;;;2.00;99.90;;;;;;5056757;28;20465;-71
2023/12/09 02:16:11;;;;;;;45.47;20.27;;;2.00;99.90;;;;;;4982977;28;20414;-71
2023/12/09 02:18:41;;;;;;;39.63;18.73;;;2.00;99.90;;;;;;5035528;28;20494;-70
2023/12/09 02:21:06;;;;;;;54.30;21.07;;;2.00;99.90;;;;;;5050645;28;20409;-73
2023/12/09 02:23:32;;;;;;;42.30;19.47;;;2.00;99.90;;;;;;5054674;28;20394;-72
2023/12/09 02:26:07;;;;;;;51.97;18.90;;;2.00;99.90;;;;;;5053600;28;20171;-71
2023/12/09 02:28:40;;;;;;;56.83;20.40;;;2.00;99.90;;;;;;5054522;28;20320;-71
2023/12/09 02:31:34;;;;;;;40.30;19.60;;;2.00;99.90;;;;;;5055635;28;20445;-73
2023/12/09 02:34:03;;;;;;;52.23;19.50;;;2.00;99.90;;;;;;5031136;28;20417;-71
2023/12/09 02:36:31;;;;;;;41.10;16.47;;;2.00;99.90;;;;;;5034136;28;20945;-71
2023/12/09 02:38:58;;;;;;;45.13;19.70;;;2.00;99.90;;;;;;5033475;28;20402;-72
2023/12/09 02:41:25;;;;;;;30.60;17.03;;;2.00;99.90;;;;;;5033998;28;20410;-72
2023/12/09 02:43:51;;;;;;;43.77;19.07;;;2.00;99.90;;;;;;5034340;28;20402;-71
2023/12/09 02:46:17;;;;;;;43.43;19.13;;;1.90;99.90;;;;;;5033414;28;20448;-72
2023/12/09 02:48:42;;;;;;;48.83;21.07;;;2.00;99.90;;;;;;5053869;28;20451;-70
2023/12/09 02:51:08;;;;;;;39.93;19.87;;;2.00;99.90;;;;;;5053817;28;20367;-72
2023/12/09 02:53:34;;;;;;;38.83;18.80;;;2.00;99.90;;;;;;5068678;28;20206;-73
2023/12/09 02:56:00;;;;;;;45.93;20.37;;;2.00;99.90;;;;;;5066726;28;20261;-71
2023/12/09 02:58:26;;;;;;;47.53;18.30;;;2.10;99.90;;;;;;5069458;28;20539;-71
2023/12/09 03:00:51;;;;;;;42.90;19.47;;;2.10;99.90;;;;;;5073803;28;20198;-73
2023/12/09 03:03:17;;;;;;;43.57;20.30;;;2.10;99.90;;;;;;5069963;28;20178;-71
2023/12/09 03:05:43;;;;;;;36.80;18.30;;;2.00;99.90;;;;;;5070937;28;20189;-70
2023/12/09 03:08:08;;;;;;;49.87;20.40;;;2.00;99.90;;;;;;5061901;28;20602;-70
2023/12/09 03:10:34;;;;;;;41.37;20.13;;;2.00;99.90;;;;;;5068019;28;20243;-76
2023/12/09 03:13:00;;;;;;;39.83;18.67;;;2.10;99.90;;;;;;5065751;28;20184;-70
2023/12/09 03:15:25;;;;;;;36.03;16.50;;;2.10;99.90;;;;;;5058623;28;20175;-71
2023/12/09 03:17:51;;;;;;;47.30;18.83;;;2.10;99.90;;;;;;5049541;28;20953;-73
2023/12/09 03:20:18;;;;;;;40.33;17.20;;;2.10;99.90;;;;;;5061993;28;20509;-73
2023/12/09 03:22:43;;;;;;;37.20;18.30;;;2.20;99.90;;;;;;5067928;28;20229;-70
2023/12/09 03:25:09;;;;;;;40.67;18.00;;;2.20;99.90;;;;;;5072704;28;20455;-70
2023/12/09 03:27:35;;;;;;;32.00;15.33;;;2.20;99.90;;;;;;5070031;28;20198;-72
2023/12/09 03:30:00;;;;;;;37.90;18.27;;;2.20;99.90;;;;;;5054657;28;20233;-71
2023/12/09 03:32:26;;;;;;;37.37;19.20;;;2.20;99.90;;;;;;5071187;28;20185;-71
2023/12/09 03:34:51;;;;;;;37.70;16.93;;;2.20;99.90;;;;;;5057234;28;20179;-72
2023/12/09 03:37:17;;;;;;;43.00;19.87;;;2.20;99.90;;;;;;5058252;28;20621;-71
2023/12/09 03:39:43;;;;;;;33.97;16.47;;;2.20;99.90;;;;;;5052620;28;20230;-72
2023/12/09 03:42:08;;;;;;;42.43;19.13;;;2.30;99.90;;;;;;5052297;28;20232;-71
2023/12/09 03:44:34;;;;;;;38.57;18.67;;;2.30;99.90;;;;;;5050162;28;20197;-72
2023/12/09 03:47:00;;;;;;;41.80;16.93;;;2.30;99.90;;;;;;5065568;28;20231;-71
2023/12/09 03:49:25;;;;;;;33.37;16.17;;;2.30;99.90;;;;;;5069500;28;20217;-71
2023/12/09 03:51:51;;;;;;;34.20;15.40;;;2.30;99.90;;;;;;5063943;28;20235;-71
2023/12/09 03:54:16;;;;;;;30.83;16.87;;;2.30;99.90;;;;;;5060629;28;20216;-73
2023/12/09 03:56:42;;;;;;;41.30;17.13;;;2.30;99.90;;;;;;5051443;28;20532;-70
2023/12/09 03:59:08;;;;;;;39.23;16.70;;;2.40;99.90;;;;;;5057358;28;20211;-70
2023/12/09 04:01:33;;;;;;;36.33;16.37;;;2.40;99.90;;;;;;5058060;28;20198;-73
2023/12/09 04:03:59;;;;;;;34.07;14.70;;;2.40;99.90;;;;;;5071379;28;20189;-70
2023/12/09 04:06:25;;;;;;;34.23;16.23;;;2.40;99.90;;;;;;5070947;28;20306;-74
2023/12/09 04:08:50;;;;;;;37.30;16.47;;;2.40;99.90;;;;;;5060785;28;20202;-70
2023/12/09 04:11:16;;;;;;;32.47;16.30;;;2.40;99.90;;;;;;5052556;28;20197;-70
2023/12/09 04:13:42;;;;;;;33.40;15.57;;;2.40;99.90;;;;;;5059223;28;20210;-71
2023/12/09 04:16:07;;;;;;;39.40;15.90;;;2.50;99.90;;;;;;5069098;28;20182;-70
2023/12/09 04:18:33;;;;;;;28.70;14.73;;;2.50;1.00;;;;;;5054654;28;20205;-70
2023/12/09 04:20:59;;;;;;;32.70;16.50;;;2.50;1.00;;;;;;5052269;28;20424;-71
2023/12/09 04:23:24;;;;;;;36.70;15.83;;;2.50;1.00;;;;;;5053011;28;20178;-70
2023/12/09 04:25:50;;;;;;;28.63;15.20;;;2.50;1.00;;;;;;5051715;28;20193;-70
2023/12/09 04:28:16;;;;;;;26.00;14.50;;;2.50;1.00;;;;;;5052562;28;20190;-71
2023/12/09 04:30:42;;;;;;;41.13;16.50;;;2.50;1.00;;;;;;5052517;28;20559;-70
2023/12/09 04:33:08;;;;;;;31.03;15.37;;;2.50;1.00;;;;;;5051737;28;20414;-71
2023/12/09 04:35:33;;;;;;;29.00;13.80;;;2.50;1.00;;;;;;5042571;28;20170;-71
2023/12/09 04:37:59;;;;;;;37.30;15.97;;;2.50;1.00;;;;;;5052305;28;20194;-71
2023/12/09 04:40:25;;;;;;;39.87;17.57;;;2.60;1.00;;;;;;5052446;28;20167;-71
2023/12/09 04:42:50;;;;;;;33.33;17.10;;;2.60;1.00;;;;;;5052778;28;20250;-70
2023/12/09 04:45:16;;;;;;;29.73;13.03;;;2.60;1.00;;;;;;5051619;28;20167;-70
2023/12/09 04:47:42;;;;;;;36.90;15.37;;;2.70;1.00;;;;;;5052119;28;20199;-71
2023/12/09 04:50:10;;;;;;;44.70;16.77;;;2.70;1.00;;;;;;5065366;28;20193;-72
2023/12/09 04:52:36;;;;;;;47.70;13.97;;;2.60;1.00;;;;;;5070464;28;20166;-70
2023/12/09 04:55:03;;;;;;;38.80;15.50;;;2.70;1.00;;;;;;5070578;28;20405;-70
2023/12/09 04:57:32;;;;;;;26.30;15.70;;;2.60;1.00;;;;;;5066623;28;20990;-70
2023/12/09 04:59:58;;;;;;;53.23;15.90;;;2.60;1.00;;;;;;5062851;28;20428;-68
2023/12/09 05:02:23;;;;;;;41.97;15.50;;;2.60;1.00;;;;;;5070523;28;20444;-70
2023/12/09 05:04:49;;;;;;;37.30;16.47;;;2.60;1.00;;;;;;5075448;28;20178;-68
2023/12/09 05:07:15;;;;;;;33.73;16.30;;;2.60;1.00;;;;;;5073126;28;20229;-68
2023/12/09 05:09:40;;;;;;;34.73;16.73;;;2.60;1.00;;;;;;5054966;28;20555;-69
2023/12/09 05:12:06;;;;;;;31.87;15.30;;;2.60;1.00;;;;;;5056350;28;20174;-68
2023/12/09 05:14:32;;;;;;;35.40;15.37;;;2.60;1.00;;;;;;5053115;28;20451;-74
2023/12/09 05:16:58;;;;;;;38.77;18.00;;;2.60;1.00;;;;;;5059278;28;20191;-69
2023/12/09 05:19:23;;;;;;;31.20;15.50;;;2.60;1.00;;;;;;5061406;28;20282;-68
2023/12/09 05:21:49;;;;;;;35.27;14.50;;;2.60;1.00;;;;;;5072150;28;20193;-69
2023/12/09 05:24:15;;;;;;;35.97;16.20;;;2.60;1.00;;;;;;5065156;28;20205;-71
2023/12/09 05:26:41;;;;;;;41.70;15.87;;;2.70;1.00;;;;;;5054423;28;20174;-68
2023/12/09 05:29:07;;;;;;;39.40;14.33;;;2.70;1.00;;;;;;5064345;28;20174;-68
2023/12/09 05:31:33;;;;;;;32.10;15.30;;;2.70;1.00;;;;;;5071109;28;20477;-70
2023/12/09 05:33:59;;;;;;;36.27;14.90;;;2.80;1.00;;;;;;5071098;28;20236;-70
2023/12/09 05:36:24;;;;;;;40.57;17.33;;;2.70;1.00;;;;;;5063228;28;20833;-69
2023/12/09 05:38:50;;;;;;;33.67;15.93;;;2.70;1.00;;;;;;5054261;28;20203;-69
2023/12/09 05:41:16;;;;;;;38.57;14.73;;;2.70;1.00;;;;;;5065362;28;20228;-68
2023/12/09 05:43:43;;;;;;;43.37;15.73;;;2.70;1.00;;;;;;5071982;28;20201;-69
2023/12/09 05:46:18;;;;;;;35.73;15.93;;;2.70;1.00;;;;;;5054337;28;20571;-69
2023/12/09 05:48:43;;;;;;;40.73;15.60;;;2.80;1.00;;;;;;5065881;28;20514;-68
2023/12/09 05:51:10;;;;;;;42.57;14.73;;;2.80;1.00;;;;;;5072708;28;20455;-68
2023/12/09 05:53:35;;;;;;;30.17;15.30;;;2.80;1.00;;;;;;5050209;28;20182;-69
2023/12/09 05:56:01;;;;;;;38.00;18.97;;;2.80;1.00;;;;;;5064919;28;20425;-69
2023/12/09 05:58:27;;;;;;;44.10;15.07;;;2.80;1.00;;;;;;5071859;28;20194;-68
2023/12/09 06:00:52;;;;;;;35.80;15.13;;;2.80;1.00;;;;;;5063514;28;20262;-69
2023/12/09 06:03:18;;;;;;;38.43;14.70;;;2.80;1.00;;;;;;5064998;28;20265;-69
2023/12/09 06:05:44;;;;;;;32.57;16.67;;;2.90;1.00;;;;;;5059503;28;20182;-68
2023/12/09 06:08:10;;;;;;;42.87;17.93;;;2.90;1.00;;;;;;5071191;28;20668;-69
2023/12/09 06:10:35;;;;;;;35.50;13.80;;;2.90;1.00;;;;;;5069283;28;20234;-71
2023/12/09 06:13:01;;;;;;;54.60;15.10;;;2.90;1.00;;;;;;5067034;28;20262;-68
2023/12/09 06:15:26;;;;;;;45.37;15.43;;;2.90;1.00;;;;;;5054023;28;20173;-69
2023/12/09 06:17:52;;;;;;;42.63;15.10;;;2.90;1.00;;;;;;5037232;28;20246;-70
2023/12/09 06:20:18;;;;;;;36.30;14.70;;;2.90;1.00;;;;;;5049917;28;20171;-69
2023/12/09 06:22:43;;;;;;;69.87;17.87;;;2.90;1.00;;;;;;5053826;28;20237;-69
2023/12/09 06:25:09;;;;;;;38.07;16.13;;;2.90;1.00;;;;;;5052221;28;20221;-68
2023/12/09 06:27:36;;;;;;;38.27;17.07;;;2.90;1.00;;;;;;5053351;28;20194;-70
2023/12/09 06:30:02;;;;;;;36.47;16.67;;;3.00;1.00;;;;;;5054323;28;20187;-69
2023/12/09 06:32:27;;;;;;;38.37;15.20;;;3.00;1.00;;;;;;5054559;28;20406;-69
2023/12/09 06:34:53;;;;;;;41.63;15.90;;;3.00;1.00;;;;;;5036185;28;20409;-70
2023/12/09 06:37:19;;;;;;;33.07;14.90;;;3.00;1.00;;;;;;5033379;28;20193;-69
2023/12/09 06:39:44;;;;;;;33.63;15.70;;;3.10;1.00;;;;;;5045864;28;20691;-69
2023/12/09 06:42:10;;;;;;;42.87;15.50;;;3.10;1.00;;;;;;5054218;28;20177;-70
2023/12/09 06:44:36;;;;;;;37.17;15.87;;;3.10;1.00;;;;;;5053324;28;20195;-71
2023/12/09 06:47:01;;;;;;;45.27;17.30;;;3.10;1.00;;;;;;5053828;28;20202;-69
2023/12/09 06:49:27;;;;;;;35.03;14.03;;;3.00;1.00;;;;;;5052874;28;20559;-69
2023/12/09 06:51:53;;;;;;;35.50;16.07;;;3.00;1.00;;;;;;5036695;28;20586;-69
2023/12/09 06:54:18;;;;;;;39.20;16.70;;;3.00;1.00;;;;;;5034351;28;20176;-69
2023/12/09 06:56:44;;;;;;;34.60;15.33;;;3.10;1.00;;;;;;5033317;28;20167;-69
2023/12/09 06:59:10;;;;;;;50.73;15.80;;;3.10;1.00;;;;;;5033622;28;20172;-70
2023/12/09 07:01:36;;;;;;;51.33;16.30;;;3.10;1.00;;;;;;5060035;28;20261;-70
2023/12/09 07:04:01;;;;;;;42.80;15.63;;;3.10;1.00;;;;;;5072638;28;21032;-69
2023/12/09 07:06:29;;;;;;;37.23;15.23;;;3.00;1.00;;;;;;5054527;28;20181;-69
2023/12/09 07:08:57;;;;;;;30.27;14.90;;;3.10;1.00;;;;;;5066087;28;20236;-71
2023/12/09 07:11:23;;;;;;;39.43;18.17;;;3.10;1.00;;;;;;5053878;28;20426;-72
2023/12/09 07:13:49;;;;;;;43.07;15.50;;;3.10;1.00;;;;;;5069452;28;20422;-70
2023/12/09 07:16:15;;;;;;;45.20;16.20;;;3.10;1.00;;;;;;5052291;28;20488;-73
2023/12/09 07:18:47;;;;;;;40.33;15.80;;;3.20;1.00;;;;;;5062556;28;20448;-71
2023/12/09 07:21:14;;;;;;;40.40;15.97;;;3.10;1.00;;;;;;5053607;28;20420;-71
2023/12/09 07:23:40;;;;;;;49.70;16.00;;;3.10;1.00;;;;;;5051758;28;20489;-71
2023/12/09 07:26:06;;;;;;;52.83;16.60;;;3.10;1.00;;;;;;5051421;28;20870;-69
2023/12/09 07:28:32;;;;;;;40.97;16.70;;;3.10;1.00;;;;;;5057905;28;20437;-69
2023/12/09 07:30:58;;;;;;;42.93;15.77;;;3.10;1.00;;;;;;5061508;28;20830;-70
2023/12/09 07:33:23;;;;;;;36.80;17.43;;;3.10;1.00;;;;;;5057504;28;20785;-71
2023/12/09 07:35:49;;;;;;;37.57;15.70;;;3.10;1.00;;;;;;5061581;28;20175;-69
2023/12/09 07:38:15;;;;;;;30.57;16.30;;;3.10;1.00;;;;;;5051708;28;20188;-69
2023/12/09 07:40:41;;;;;;;35.33;14.30;;;3.20;1.00;;;;;;5052962;28;20176;-69
2023/12/09 07:43:07;;;;;;;41.47;15.17;;;3.20;1.00;;;;;;5052061;28;20229;-70
2023/12/09 07:45:33;;;;;;;49.87;16.80;;;3.30;1.00;;;;;;5052314;28;20170;-71
2023/12/09 07:48:00;;;;;;;38.50;15.83;;;3.20;1.00;;;;;;5052008;28;20433;-71
2023/12/09 07:50:25;;;;;;;38.87;17.30;;;3.20;1.00;;;;;;5052688;28;20798;-70
2023/12/09 07:52:51;;;;;;;27.37;14.90;;;3.20;1.00;;;;;;5053140;28;20489;-68
2023/12/09 07:55:17;;;;;;;36.47;15.77;;;3.30;1.00;;;;;;5052261;28;20163;-68
2023/12/09 07:57:42;;;;;;;40.23;18.20;;;3.30;1.00;;;;;;5052467;28;20198;-69
2023/12/09 08:00:09;;;;;;;32.70;17.07;;;3.30;1.00;;;;;;5058918;28;20187;-69
2023/12/09 08:02:35;;;;;;;38.17;14.17;;;3.30;1.00;;;;;;5072820;28;20268;-69
2023/12/09 08:05:01;;;;;;;41.97;18.33;;;3.30;1.00;;;;;;5067750;28;20422;-68
2023/12/09 08:07:27;;;;;;;32.20;17.57;;;3.30;1.00;;;;;;5052829;28;20525;-68
2023/12/09 08:09:52;;;;;;;38.20;17.40;;;3.30;1.00;;;;;;5053938;28;20460;-69
2023/12/09 08:12:18;;;;;;;45.90;17.90;;;3.30;1.00;;;;;;5071112;28;20203;-71
2023/12/09 08:14:44;;;;;;;44.43;16.83;;;3.30;1.00;;;;;;5070336;28;20651;-68
2023/12/09 08:17:09;;;;;;;43.17;16.63;;;3.30;1.00;;;;;;5060966;28;20667;-69
2023/12/09 08:19:35;;;;;;;54.30;16.80;;;3.40;1.00;;;;;;5055121;28;20968;-71
2023/12/09 08:22:02;;;;;;;47.37;19.47;;;3.40;1.00;;;;;;5052878;28;20169;-69
2023/12/09 08:24:28;;;;;;;56.40;18.13;;;3.40;1.00;;;;;;5051126;28;20281;-68
2023/12/09 08:26:54;;;;;;;38.83;18.97;;;3.40;1.00;;;;;;5051807;28;20442;-70
2023/12/09 08:29:20;;;;;;;40.27;16.40;;;3.50;1.00;;;;;;5069338;28;20949;-69
2023/12/09 08:31:49;;;;;;;51.37;17.43;;;3.50;1.00;;;;;;5057128;28;20423;-69
2023/12/09 08:34:18;;;;;;;37.37;17.87;;;3.50;1.00;;;;;;5066643;28;20459;-70
2023/12/09 08:36:44;;;;;;;48.00;18.17;;;3.50;1.00;;;;;;5070871;28;20433;-68
2023/12/09 08:39:10;;;;;;;42.53;18.60;;;3.50;1.00;;;;;;5065491;28;20472;-69
2023/12/09 08:41:36;;;;;;;42.13;16.67;;;3.50;1.00;;;;;;5056736;28;20399;-70
2023/12/09 08:44:03;;;;;;;39.43;16.50;;;3.50;1.00;;;;;;5072658;28;20495;-69
2023/12/09 08:46:30;;;;;;;44.30;17.03;;;3.60;1.00;;;;;;5058276;28;20433;-69
2023/12/09 08:48:55;;;;;;;59.03;18.60;;;3.50;1.00;;;;;;5057904;28;20519;-70
2023/12/09 08:51:21;;;;;;;42.93;17.87;;;3.60;1.00;;;;;;5073312;28;20556;-69
2023/12/09 08:53:47;;;;;;;43.70;16.23;;;3.60;1.00;;;;;;5064692;28;20422;-70
2023/12/09 08:56:13;;;;;;;43.13;18.30;;;3.70;1.00;;;;;;5054979;28;20445;-71
2023/12/09 08:58:38;;;;;;;56.47;16.07;;;3.70;1.00;;;;;;5056009;28;20194;-68
2023/12/09 09:01:04;;;;;;;37.10;16.77;;;3.70;1.00;;;;;;5055011;28;20313;-70
2023/12/09 09:03:30;;;;;;;40.07;17.77;;;3.70;1.00;;;;;;5056104;28;20178;-69
2023/12/09 09:05:57;;;;;;;53.53;18.93;;;3.70;1.00;;;;;;5055415;28;20172;-69
2023/12/09 09:08:23;;;;;;;50.20;17.17;;;3.80;1.00;;;;;;5056035;28;20565;-69
2023/12/09 09:10:49;;;;;;;45.53;17.00;;;3.80;1.00;;;;;;5056050;28;20550;-72
2023/12/09 09:13:15;;;;;;;44.03;16.47;;;3.80;1.00;;;;;;5056134;28;20260;-69
2023/12/09 09:15:41;;;;;;;55.23;17.70;;;3.80;1.00;;;;;;5055304;28;21000;-69
2023/12/09 09:18:07;;;;;;;52.73;17.73;;;3.90;1.00;;;;;;5056086;28;20571;-70
2023/12/09 09:20:33;;;;;;;52.10;18.47;;;3.90;1.00;;;;;;5055804;28;20416;-70
2023/12/09 09:22:59;;;;;;;38.23;16.53;;;3.90;1.00;;;;;;5055470;28;20176;-68
2023/12/09 09:25:25;;;;;;;44.20;17.50;;;3.90;1.00;;;;;;5055062;28;20199;-69
2023/12/09 09:27:51;;;;;;;45.20;19.50;;;3.90;1.00;;;;;;5055540;28;20424;-69
2023/12/09 09:30:19;;;;;;;34.60;18.27;;;3.90;1.00;;;;;;5055671;28;20463;-68
2023/12/09 09:32:46;;;;;;;39.63;17.20;;;3.90;1.00;;;;;;5055944;28;20895;-68
2023/12/09 09:35:12;;;;;;;42.43;18.73;;;4.00;1.00;;;;;;5055057;28;20395;-67
2023/12/09 09:37:37;;;;;;;38.43;18.50;;;3.90;1.00;;;;;;5055512;28;20509;-69
2023/12/09 09:40:04;;;;;;;43.63;19.90;;;3.90;1.00;;;;;;5055776;28;20540;-69
2023/12/09 09:42:36;;;;;;;41.40;18.00;;;4.00;1.00;;;;;;5055239;28;20218;-68
2023/12/09 09:45:20;;;;;;;63.73;20.50;;;4.00;1.00;;;;;;5054745;28;20501;-69
2023/12/09 09:47:48;;;;;;;50.03;18.97;;;4.00;1.00;;;;;;5053539;28;20438;-69
2023/12/09 09:50:22;;;;;;;36.33;17.67;;;4.10;1.00;;;;;;5055414;28;20466;-70
2023/12/09 09:52:50;;;;;;;40.67;16.87;;;4.10;1.00;;;;;;5055406;28;20415;-69
2023/12/09 09:55:24;;;;;;;40.47;18.17;;;4.20;1.00;;;;;;5037659;28;20408;-68
2023/12/09 09:57:52;;;;;;;47.60;19.83;;;4.20;1.00;;;;;;5047027;28;20439;-69
2023/12/09 10:00:19;;;;;;;35.80;19.67;;;4.20;1.00;;;;;;5055045;28;20809;-69
2023/12/09 10:02:47;;;;;;;39.73;20.17;;;4.30;1.00;;;;;;5054816;28;20396;-67
2023/12/09 10:05:15;;;;;;;40.03;21.47;;;4.30;1.00;;;;;;5054504;28;20413;-69
2023/12/09 10:07:42;;;;;;;45.33;19.87;;;4.30;1.00;;;;;;5055025;28;20432;-69
2023/12/09 10:10:09;;;;;;;37.40;17.17;;;4.30;1.00;;;;;;5055247;28;20452;-69
2023/12/09 10:12:36;;;;;;;33.20;17.83;;;4.40;1.00;;;;;;5053630;28;20412;-69
2023/12/09 10:15:02;;;;;;;41.50;19.27;;;4.30;1.00;;;;;;5054248;28;20457;-70
2023/12/09 10:17:29;;;;;;;46.13;20.07;;;4.30;1.00;;;;;;5054476;28;20798;-68
2023/12/09 10:19:55;;;;;;;47.60;21.47;;;4.30;1.00;;;;;;5053548;28;20416;-69
2023/12/09 10:22:21;;;;;;;45.10;19.23;;;4.30;1.00;;;;;;5054841;28;20762;-69
2023/12/09 10:24:50;;;;;;;45.90;21.60;;;4.40;1.00;;;;;;5054150;28;20930;-69
2023/12/09 10:27:22;;;;;;;40.03;20.33;;;4.40;1.00;;;;;;5054657;28;20443;-68
2023/12/09 10:29:49;;;;;;;44.37;20.10;;;4.40;1.00;;;;;;5054654;28;20964;-68
2023/12/09 10:32:15;;;;;;;41.97;18.90;;;4.40;1.00;;;;;;5053578;28;20424;-72
2023/12/09 10:34:42;;;;;;;31.63;18.70;;;4.40;1.00;;;;;;5053877;28;20412;-70
2023/12/09 10:37:08;;;;;;;53.33;20.90;;;4.40;1.00;;;;;;5053938;28;20913;-67
2023/12/09 10:39:34;;;;;;;39.03;19.10;;;4.50;1.00;;;;;;5053638;28;20422;-69
2023/12/09 10:42:00;;;;;;;39.03;20.03;;;4.50;1.00;;;;;;5054518;28;20419;-68
2023/12/09 10:44:26;;;;;;;42.63;21.37;;;4.50;1.00;;;;;;5053116;28;20455;-69
2023/12/09 10:46:51;;;;;;;40.17;19.57;;;4.50;1.00;;;;;;5053768;28;20187;-71
2023/12/09 10:49:18;;;;;;;48.63;19.80;;;4.50;1.00;;;;;;5054220;28;20840;-67
2023/12/09 10:51:44;;;;;;;41.97;18.47;;;4.50;1.00;;;;;;5052680;28;20209;-69
2023/12/09 10:54:10;;;;;;;36.30;19.13;;;4.60;1.00;;;;;;5053255;28;20451;-67
2023/12/09 10:56:36;;;;;;;46.63;20.80;;;4.60;1.00;;;;;;5053112;28;20168;-69
2023/12/09 10:59:03;;;;;;;38.43;19.53;;;4.60;1.00;;;;;;5053621;28;20208;-67
2023/12/09 11:01:29;;;;;;;36.90;19.37;;;4.60;1.00;;;;;;5051760;28;20778;-76
2023/12/09 11:03:56;;;;;;;43.83;21.23;;;4.70;1.00;;;;;;5062565;28;20432;-66
2023/12/09 11:06:24;;;;;;;43.60;20.33;;;4.70;1.00;;;;;;5062667;28;20435;-66
2023/12/09 11:08:51;;;;;;;45.00;17.87;;;4.70;1.00;;;;;;5061409;28;20494;-69
2023/12/09 11:11:18;;;;;;;40.87;20.80;;;4.70;1.00;;;;;;5054556;28;20471;-67
2023/12/09 11:13:46;;;;;;;47.70;19.70;;;4.70;1.00;;;;;;5050088;28;20524;-67
2023/12/09 11:16:20;;;;;;;34.77;18.57;;;4.70;1.00;;;;;;5053570;28;20419;-70
2023/12/09 11:18:57;;;;;;;36.43;18.50;;;4.80;1.00;;;;;;5067869;28;20536;-66
2023/12/09 11:21:29;;;;;;;35.67;18.23;;;4.80;1.00;;;;;;5070578;28;20419;-69
2023/12/09 11:23:56;;;;;;;33.33;20.23;;;4.80;1.00;;;;;;5073485;28;20492;-67
2023/12/09 11:26:33;;;;;;;39.63;20.57;;;4.80;1.00;;;;;;5063323;28;20427;-67
2023/12/09 11:29:04;;;;;;;40.97;20.53;;;4.80;1.00;;;;;;5070239;28;20476;-71
2023/12/09 11:31:41;;;;;;;38.40;19.77;;;4.90;1.00;;;;;;5073596;28;20458;-67
2023/12/09 11:34:09;;;;;;;44.50;19.10;;;4.90;1.00;;;;;;5073380;28;20392;-67
2023/12/09 11:36:36;;;;;;;33.47;18.33;;;4.80;1.00;;;;;;5072512;28;20392;-66
2023/12/09 11:39:22;;;;;;;29.10;16.60;;;4.90;1.00;;;;;;5055662;28;20417;-69
2023/12/09 11:41:49;;;;;;;37.40;18.37;;;4.90;1.00;;;;;;5052415;28;20493;-67
2023/12/09 11:44:14;;;;;;;30.50;17.97;;;4.90;1.00;;;;;;5071687;28;20815;-70
2023/12/09 11:46:41;;;;;;;32.83;19.40;;;4.90;1.00;;;;;;5068927;28;20424;-71
2023/12/09 11:49:08;;;;;;;42.30;17.37;;;4.90;1.00;;;;;;5072862;28;20173;-66
2023/12/09 11:51:35;;;;;;;35.90;16.97;;;5.00;1.00;;;;;;5054289;28;20575;-67
2023/12/09 11:54:08;;;;;;;33.77;17.77;;;5.00;1.00;;;;;;5057504;28;20527;-67
2023/12/09 11:56:35;;;;;;;36.50;18.70;;;5.10;1.00;;;;;;5071050;28;20455;-68
2023/12/09 11:59:01;;;;;;;40.93;17.77;;;5.20;1.00;;;;;;5053764;28;20764;-67
2023/12/09 12:01:29;;;;;;;38.30;19.63;;;5.30;1.00;;;;;;5052856;28;20435;-68
2023/12/09 12:03:55;;;;;;;35.60;16.40;;;5.30;1.00;;;;;;5052434;28;20202;-69
2023/12/09 12:06:22;;;;;;;31.23;17.13;;;5.40;1.00;;;;;;5050502;28;20417;-70
2023/12/09 12:08:50;;;;;;;37.80;18.27;;;5.40;1.00;;;;;;5052830;28;20421;-67
2023/12/09 12:11:17;;;;;;;40.77;18.77;;;5.50;1.00;;;;;;5052194;28;20468;-67
2023/12/09 12:13:43;;;;;;;33.23;16.50;;;5.60;1.00;;;;;;5051815;28;20790;-67
2023/12/09 12:16:09;;;;;;;26.40;18.40;;;5.60;1.00;;;;;;5052113;28;20397;-70
2023/12/09 12:18:35;;;;;;;45.23;22.63;;;5.60;1.00;;;;;;5052859;28;20471;-68
2023/12/09 12:21:01;;;;;;;33.07;16.80;;;5.60;1.00;;;;;;5052485;28;20401;-68
2023/12/09 12:23:27;;;;;;;30.23;17.80;;;5.60;1.00;;;;;;5050790;28;20183;-68
2023/12/09 12:25:54;;;;;;;43.90;18.70;;;5.60;1.00;;;;;;5065934;28;20803;-66
2023/12/09 12:28:20;;;;;;;31.17;16.97;;;5.50;1.00;;;;;;5066367;28;20452;-69
2023/12/09 12:30:57;;;;;;;33.33;17.77;;;5.50;1.00;;;;;;5057806;28;20461;-68
2023/12/09 12:33:26;;;;;;;34.10;18.40;;;5.50;1.00;;;;;;5057682;28;20781;-69
2023/12/09 12:35:55;;;;;;;36.10;17.20;;;5.40;1.00;;;;;;5070681;28;20439;-69
2023/12/09 12:38:25;;;;;;;33.23;15.87;;;5.40;1.00;;;;;;5072305;28;20430;-66
2023/12/09 12:40:52;;;;;;;33.30;16.20;;;5.40;1.00;;;;;;5063363;28;20437;-70